sensor_id;sensor_type;location;lat;lon;timestamp;P1;durP1;ratioP1;P2;durP2;ratioP2
12663;SDS011;6396;58.490;15.528;2022-07-12T00:01:40;3.20;;;2.30;;
12663;SDS011;6396;58.490;15.528;2022-07-12T00:04:06;4.77;;;2.60;;
12663;SDS011;6396;58.490;15.528;2022-07-12T00:06:35;6.23;;;2.87;;
12663;SDS011;6396;58.490;15.528;2022-07-12T00:09:02;5.30;;;2.57;;
12663;SDS011;6396;58.490;15.528;2022-07-12T00:11:28;6.07;;;3.30;;
12663;SDS011;6396;58.490;15.528;2022-07-12T00:13:56;5.70;;;2.80;;
12663;SDS011;6396;58.490;15.528;2022-07-12T00:16:23;2.70;;;2.37;;
12663;SDS011;6396;58.490;15.528;2022-07-12T00:18:49;3.90;;;2.83;;
12663;SDS011;6396;58.490;15.528;2022-07-12T00:21:16;3.73;;;2.97;;
12663;SDS011;6396;58.490;15.528;2022-07-12T00:23:45;4.23;;;2.60;;
12663;SDS011;6396;58.490;15.528;2022-07-12T00:26:12;5.63;;;2.80;;
12663;SDS011;6396;58.490;15.528;2022-07-12T00:28:39;3.13;;;2.70;;
12663;SDS011;6396;58.490;15.528;2022-07-12T00:31:05;4.13;;;2.70;;
12663;SDS011;6396;58.490;15.528;2022-07-12T00:33:32;5.27;;;2.77;;
12663;SDS011;6396;58.490;15.528;2022-07-12T00:35:59;4.27;;;2.40;;
12663;SDS011;6396;58.490;15.528;2022-07-12T00:38:26;2.90;;;2.63;;
12663;SDS011;6396;58.490;15.528;2022-07-12T00:40:54;3.33;;;2.40;;
12663;SDS011;6396;58.490;15.528;2022-07-12T00:43:21;4.03;;;2.20;;
12663;SDS011;6396;58.490;15.528;2022-07-12T00:45:47;2.80;;;2.10;;
12663;SDS011;6396;58.490;15.528;2022-07-12T00:48:14;2.07;;;1.63;;
12663;SDS011;6396;58.490;15.528;2022-07-12T00:50:43;3.10;;;1.90;;
12663;SDS011;6396;58.490;15.528;2022-07-12T00:53:10;6.63;;;2.27;;
12663;SDS011;6396;58.490;15.528;2022-07-12T00:55:39;4.23;;;1.87;;
12663;SDS011;6396;58.490;15.528;2022-07-12T00:58:08;3.20;;;1.60;;
12663;SDS011;6396;58.490;15.528;2022-07-12T01:00:34;3.53;;;1.47;;
12663;SDS011;6396;58.490;15.528;2022-07-12T01:03:02;2.27;;;1.30;;
12663;SDS011;6396;58.490;15.528;2022-07-12T01:05:29;3.60;;;1.73;;
12663;SDS011;6396;58.490;15.528;2022-07-12T01:07:57;3.07;;;1.80;;
12663;SDS011;6396;58.490;15.528;2022-07-12T01:10:24;3.80;;;1.30;;
12663;SDS011;6396;58.490;15.528;2022-07-12T01:12:51;4.07;;;1.50;;
12663;SDS011;6396;58.490;15.528;2022-07-12T01:15:19;2.57;;;1.50;;
12663;SDS011;6396;58.490;15.528;2022-07-12T01:17:47;2.17;;;1.57;;
12663;SDS011;6396;58.490;15.528;2022-07-12T01:20:14;1.70;;;1.60;;
12663;SDS011;6396;58.490;15.528;2022-07-12T01:22:46;2.40;;;1.50;;
12663;SDS011;6396;58.490;15.528;2022-07-12T01:25:18;2.00;;;1.40;;
12663;SDS011;6396;58.490;15.528;2022-07-12T01:27:45;5.53;;;1.80;;
12663;SDS011;6396;58.490;15.528;2022-07-12T01:30:11;3.00;;;1.63;;
12663;SDS011;6396;58.490;15.528;2022-07-12T01:32:38;2.47;;;1.40;;
12663;SDS011;6396;58.490;15.528;2022-07-12T01:35:06;2.70;;;1.40;;
12663;SDS011;6396;58.490;15.528;2022-07-12T01:37:33;2.57;;;1.43;;
12663;SDS011;6396;58.490;15.528;2022-07-12T01:40:03;2.80;;;1.50;;
12663;SDS011;6396;58.490;15.528;2022-07-12T01:42:31;2.17;;;1.50;;
12663;SDS011;6396;58.490;15.528;2022-07-12T01:44:58;2.50;;;1.40;;
12663;SDS011;6396;58.490;15.528;2022-07-12T01:47:26;2.73;;;1.73;;
12663;SDS011;6396;58.490;15.528;2022-07-12T01:49:56;2.90;;;1.70;;
12663;SDS011;6396;58.490;15.528;2022-07-12T01:52:22;1.73;;;1.47;;
12663;SDS011;6396;58.490;15.528;2022-07-12T01:54:49;2.17;;;1.47;;
12663;SDS011;6396;58.490;15.528;2022-07-12T01:57:18;5.73;;;2.00;;
12663;SDS011;6396;58.490;15.528;2022-07-12T01:59:45;1.50;;;1.33;;
12663;SDS011;6396;58.490;15.528;2022-07-12T02:02:12;1.70;;;1.60;;
12663;SDS011;6396;58.490;15.528;2022-07-12T02:04:39;2.33;;;1.80;;
12663;SDS011;6396;58.490;15.528;2022-07-12T02:07:06;1.50;;;1.40;;
12663;SDS011;6396;58.490;15.528;2022-07-12T02:09:33;2.27;;;1.80;;
12663;SDS011;6396;58.490;15.528;2022-07-12T02:11:59;2.13;;;1.93;;
12663;SDS011;6396;58.490;15.528;2022-07-12T02:14:27;3.37;;;1.77;;
12663;SDS011;6396;58.490;15.528;2022-07-12T02:16:54;2.10;;;1.90;;
12663;SDS011;6396;58.490;15.528;2022-07-12T02:19:21;2.33;;;2.00;;
12663;SDS011;6396;58.490;15.528;2022-07-12T02:21:48;2.03;;;1.90;;
12663;SDS011;6396;58.490;15.528;2022-07-12T02:24:15;2.47;;;1.90;;
12663;SDS011;6396;58.490;15.528;2022-07-12T02:26:42;3.17;;;1.70;;
12663;SDS011;6396;58.490;15.528;2022-07-12T02:29:09;2.43;;;2.23;;
12663;SDS011;6396;58.490;15.528;2022-07-12T02:31:38;2.10;;;1.90;;
12663;SDS011;6396;58.490;15.528;2022-07-12T02:34:05;2.57;;;2.20;;
12663;SDS011;6396;58.490;15.528;2022-07-12T02:36:31;2.83;;;2.27;;
12663;SDS011;6396;58.490;15.528;2022-07-12T02:38:58;3.57;;;2.10;;
12663;SDS011;6396;58.490;15.528;2022-07-12T02:41:28;2.00;;;1.80;;
12663;SDS011;6396;58.490;15.528;2022-07-12T02:43:54;2.90;;;2.00;;
12663;SDS011;6396;58.490;15.528;2022-07-12T02:46:21;3.83;;;2.10;;
12663;SDS011;6396;58.490;15.528;2022-07-12T02:48:50;4.53;;;2.00;;
12663;SDS011;6396;58.490;15.528;2022-07-12T02:51:17;4.10;;;2.37;;
12663;SDS011;6396;58.490;15.528;2022-07-12T02:53:44;3.57;;;1.87;;
12663;SDS011;6396;58.490;15.528;2022-07-12T02:56:10;1.83;;;1.73;;
12663;SDS011;6396;58.490;15.528;2022-07-12T02:58:37;2.33;;;2.13;;
12663;SDS011;6396;58.490;15.528;2022-07-12T03:01:04;2.67;;;2.00;;
12663;SDS011;6396;58.490;15.528;2022-07-12T03:03:31;1.93;;;1.80;;
12663;SDS011;6396;58.490;15.528;2022-07-12T03:05:59;2.50;;;2.20;;
12663;SDS011;6396;58.490;15.528;2022-07-12T03:08:26;2.60;;;1.70;;
12663;SDS011;6396;58.490;15.528;2022-07-12T03:10:53;3.17;;;1.90;;
12663;SDS011;6396;58.490;15.528;2022-07-12T03:13:19;2.43;;;1.90;;
12663;SDS011;6396;58.490;15.528;2022-07-12T03:15:46;3.07;;;1.87;;
12663;SDS011;6396;58.490;15.528;2022-07-12T03:18:15;1.77;;;1.67;;
12663;SDS011;6396;58.490;15.528;2022-07-12T03:20:41;1.93;;;1.77;;
12663;SDS011;6396;58.490;15.528;2022-07-12T03:23:09;1.93;;;1.77;;
12663;SDS011;6396;58.490;15.528;2022-07-12T03:25:36;1.70;;;1.60;;
12663;SDS011;6396;58.490;15.528;2022-07-12T03:28:03;2.70;;;1.87;;
12663;SDS011;6396;58.490;15.528;2022-07-12T03:30:30;3.73;;;1.50;;
12663;SDS011;6396;58.490;15.528;2022-07-12T03:32:57;1.67;;;1.57;;
12663;SDS011;6396;58.490;15.528;2022-07-12T03:35:23;1.93;;;1.83;;
12663;SDS011;6396;58.490;15.528;2022-07-12T03:37:51;1.90;;;1.70;;
12663;SDS011;6396;58.490;15.528;2022-07-12T03:40:20;1.90;;;1.70;;
12663;SDS011;6396;58.490;15.528;2022-07-12T03:42:48;4.20;;;2.00;;
12663;SDS011;6396;58.490;15.528;2022-07-12T03:45:15;1.67;;;1.57;;
12663;SDS011;6396;58.490;15.528;2022-07-12T03:47:42;1.80;;;1.60;;
12663;SDS011;6396;58.490;15.528;2022-07-12T03:50:10;2.20;;;1.97;;
12663;SDS011;6396;58.490;15.528;2022-07-12T03:52:39;3.20;;;2.00;;
12663;SDS011;6396;58.490;15.528;2022-07-12T03:55:07;2.77;;;1.67;;
12663;SDS011;6396;58.490;15.528;2022-07-12T03:57:36;2.27;;;1.87;;
12663;SDS011;6396;58.490;15.528;2022-07-12T04:00:04;2.17;;;1.70;;
12663;SDS011;6396;58.490;15.528;2022-07-12T04:02:33;2.57;;;1.80;;
12663;SDS011;6396;58.490;15.528;2022-07-12T04:05:00;2.30;;;1.70;;
12663;SDS011;6396;58.490;15.528;2022-07-12T04:07:27;2.13;;;1.40;;
12663;SDS011;6396;58.490;15.528;2022-07-12T04:09:54;2.13;;;1.80;;
12663;SDS011;6396;58.490;15.528;2022-07-12T04:12:21;3.00;;;1.60;;
12663;SDS011;6396;58.490;15.528;2022-07-12T04:14:49;2.17;;;1.70;;
12663;SDS011;6396;58.490;15.528;2022-07-12T04:17:16;3.77;;;1.93;;
12663;SDS011;6396;58.490;15.528;2022-07-12T04:19:43;1.70;;;1.60;;
12663;SDS011;6396;58.490;15.528;2022-07-12T04:22:09;3.33;;;1.90;;
12663;SDS011;6396;58.490;15.528;2022-07-12T04:24:36;1.97;;;1.80;;
12663;SDS011;6396;58.490;15.528;2022-07-12T04:27:03;1.80;;;1.70;;
12663;SDS011;6396;58.490;15.528;2022-07-12T04:29:30;1.60;;;1.50;;
12663;SDS011;6396;58.490;15.528;2022-07-12T04:31:58;3.33;;;2.00;;
12663;SDS011;6396;58.490;15.528;2022-07-12T04:34:25;2.20;;;1.93;;
12663;SDS011;6396;58.490;15.528;2022-07-12T04:36:52;1.70;;;1.60;;
12663;SDS011;6396;58.490;15.528;2022-07-12T04:39:19;3.93;;;1.73;;
12663;SDS011;6396;58.490;15.528;2022-07-12T04:41:46;2.23;;;1.97;;
12663;SDS011;6396;58.490;15.528;2022-07-12T04:44:13;3.13;;;1.80;;
12663;SDS011;6396;58.490;15.528;2022-07-12T04:46:39;1.63;;;1.53;;
12663;SDS011;6396;58.490;15.528;2022-07-12T04:49:08;2.80;;;2.43;;
12663;SDS011;6396;58.490;15.528;2022-07-12T04:51:34;2.20;;;2.00;;
12663;SDS011;6396;58.490;15.528;2022-07-12T04:54:01;3.27;;;1.70;;
12663;SDS011;6396;58.490;15.528;2022-07-12T04:56:28;2.40;;;1.80;;
12663;SDS011;6396;58.490;15.528;2022-07-12T04:58:55;2.13;;;1.80;;
12663;SDS011;6396;58.490;15.528;2022-07-12T05:01:22;4.60;;;2.07;;
12663;SDS011;6396;58.490;15.528;2022-07-12T05:03:48;3.30;;;2.03;;
12663;SDS011;6396;58.490;15.528;2022-07-12T05:06:17;2.60;;;2.00;;
12663;SDS011;6396;58.490;15.528;2022-07-12T05:08:43;4.63;;;2.30;;
12663;SDS011;6396;58.490;15.528;2022-07-12T05:11:10;2.43;;;1.90;;
12663;SDS011;6396;58.490;15.528;2022-07-12T05:13:37;4.97;;;2.20;;
12663;SDS011;6396;58.490;15.528;2022-07-12T05:16:05;2.77;;;2.17;;
12663;SDS011;6396;58.490;15.528;2022-07-12T05:18:33;2.33;;;2.00;;
12663;SDS011;6396;58.490;15.528;2022-07-12T05:21:00;3.83;;;2.60;;
12663;SDS011;6396;58.490;15.528;2022-07-12T05:23:28;2.57;;;2.37;;
12663;SDS011;6396;58.490;15.528;2022-07-12T05:25:55;4.27;;;2.10;;
12663;SDS011;6396;58.490;15.528;2022-07-12T05:28:22;3.13;;;2.40;;
12663;SDS011;6396;58.490;15.528;2022-07-12T05:30:49;2.60;;;2.17;;
12663;SDS011;6396;58.490;15.528;2022-07-12T05:33:16;2.70;;;2.23;;
12663;SDS011;6396;58.490;15.528;2022-07-12T05:35:42;4.07;;;2.57;;
12663;SDS011;6396;58.490;15.528;2022-07-12T05:38:09;3.57;;;2.70;;
12663;SDS011;6396;58.490;15.528;2022-07-12T05:40:37;2.90;;;2.47;;
12663;SDS011;6396;58.490;15.528;2022-07-12T05:43:04;2.50;;;2.30;;
12663;SDS011;6396;58.490;15.528;2022-07-12T05:45:31;2.90;;;2.60;;
12663;SDS011;6396;58.490;15.528;2022-07-12T05:47:58;3.03;;;2.17;;
12663;SDS011;6396;58.490;15.528;2022-07-12T05:50:25;2.60;;;2.40;;
12663;SDS011;6396;58.490;15.528;2022-07-12T05:52:51;3.50;;;2.20;;
12663;SDS011;6396;58.490;15.528;2022-07-12T05:55:35;2.47;;;2.23;;
12663;SDS011;6396;58.490;15.528;2022-07-12T05:58:04;4.33;;;2.17;;
12663;SDS011;6396;58.490;15.528;2022-07-12T06:00:31;4.30;;;2.73;;
12663;SDS011;6396;58.490;15.528;2022-07-12T06:02:58;2.13;;;1.93;;
12663;SDS011;6396;58.490;15.528;2022-07-12T06:05:25;3.77;;;2.43;;
12663;SDS011;6396;58.490;15.528;2022-07-12T06:07:52;2.30;;;2.10;;
12663;SDS011;6396;58.490;15.528;2022-07-12T06:10:19;2.57;;;2.37;;
12663;SDS011;6396;58.490;15.528;2022-07-12T06:12:47;2.40;;;2.17;;
12663;SDS011;6396;58.490;15.528;2022-07-12T06:15:14;2.97;;;2.23;;
12663;SDS011;6396;58.490;15.528;2022-07-12T06:17:41;2.80;;;2.10;;
12663;SDS011;6396;58.490;15.528;2022-07-12T06:20:08;2.10;;;1.90;;
12663;SDS011;6396;58.490;15.528;2022-07-12T06:22:36;2.73;;;2.10;;
12663;SDS011;6396;58.490;15.528;2022-07-12T06:25:03;2.40;;;1.90;;
12663;SDS011;6396;58.490;15.528;2022-07-12T06:27:30;3.40;;;1.70;;
12663;SDS011;6396;58.490;15.528;2022-07-12T06:29:59;2.97;;;2.17;;
12663;SDS011;6396;58.490;15.528;2022-07-12T06:32:26;3.87;;;2.00;;
12663;SDS011;6396;58.490;15.528;2022-07-12T06:34:53;3.83;;;2.00;;
12663;SDS011;6396;58.490;15.528;2022-07-12T06:37:19;3.23;;;2.10;;
12663;SDS011;6396;58.490;15.528;2022-07-12T06:39:46;3.40;;;1.93;;
12663;SDS011;6396;58.490;15.528;2022-07-12T06:42:13;2.50;;;2.07;;
12663;SDS011;6396;58.490;15.528;2022-07-12T06:44:40;3.50;;;2.17;;
12663;SDS011;6396;58.490;15.528;2022-07-12T06:47:08;3.23;;;2.43;;
12663;SDS011;6396;58.490;15.528;2022-07-12T06:49:35;1.93;;;1.83;;
12663;SDS011;6396;58.490;15.528;2022-07-12T06:52:02;2.80;;;1.93;;
12663;SDS011;6396;58.490;15.528;2022-07-12T06:54:30;3.73;;;2.27;;
12663;SDS011;6396;58.490;15.528;2022-07-12T06:56:57;2.27;;;1.87;;
12663;SDS011;6396;58.490;15.528;2022-07-12T06:59:23;3.17;;;2.27;;
12663;SDS011;6396;58.490;15.528;2022-07-12T07:01:50;3.30;;;1.67;;
12663;SDS011;6396;58.490;15.528;2022-07-12T07:04:22;2.77;;;2.03;;
12663;SDS011;6396;58.490;15.528;2022-07-12T07:06:49;2.73;;;2.00;;
12663;SDS011;6396;58.490;15.528;2022-07-12T07:09:16;2.00;;;1.90;;
12663;SDS011;6396;58.490;15.528;2022-07-12T07:11:42;2.47;;;1.80;;
12663;SDS011;6396;58.490;15.528;2022-07-12T07:14:09;2.37;;;1.53;;
12663;SDS011;6396;58.490;15.528;2022-07-12T07:16:36;1.73;;;1.60;;
12663;SDS011;6396;58.490;15.528;2022-07-12T07:19:04;2.20;;;2.00;;
12663;SDS011;6396;58.490;15.528;2022-07-12T07:21:33;2.23;;;2.00;;
12663;SDS011;6396;58.490;15.528;2022-07-12T07:24:00;2.33;;;1.90;;
12663;SDS011;6396;58.490;15.528;2022-07-12T07:26:27;2.97;;;2.10;;
12663;SDS011;6396;58.490;15.528;2022-07-12T07:28:54;2.03;;;1.87;;
12663;SDS011;6396;58.490;15.528;2022-07-12T07:31:39;1.93;;;1.77;;
12663;SDS011;6396;58.490;15.528;2022-07-12T07:34:06;3.03;;;1.60;;
12663;SDS011;6396;58.490;15.528;2022-07-12T07:36:34;1.93;;;1.70;;
12663;SDS011;6396;58.490;15.528;2022-07-12T07:39:02;1.70;;;1.47;;
12663;SDS011;6396;58.490;15.528;2022-07-12T07:41:29;3.70;;;2.10;;
12663;SDS011;6396;58.490;15.528;2022-07-12T07:43:56;1.60;;;1.50;;
12663;SDS011;6396;58.490;15.528;2022-07-12T07:46:22;1.53;;;1.43;;
12663;SDS011;6396;58.490;15.528;2022-07-12T07:48:49;1.73;;;1.63;;
12663;SDS011;6396;58.490;15.528;2022-07-12T07:51:16;2.00;;;1.80;;
12663;SDS011;6396;58.490;15.528;2022-07-12T07:53:44;2.13;;;1.70;;
12663;SDS011;6396;58.490;15.528;2022-07-12T07:56:11;3.47;;;1.77;;
12663;SDS011;6396;58.490;15.528;2022-07-12T07:58:38;2.13;;;1.50;;
12663;SDS011;6396;58.490;15.528;2022-07-12T08:01:05;1.77;;;1.40;;
12663;SDS011;6396;58.490;15.528;2022-07-12T08:03:32;1.67;;;1.57;;
12663;SDS011;6396;58.490;15.528;2022-07-12T08:05:58;1.60;;;1.40;;
12663;SDS011;6396;58.490;15.528;2022-07-12T08:08:26;2.73;;;1.40;;
12663;SDS011;6396;58.490;15.528;2022-07-12T08:10:55;1.60;;;1.30;;
12663;SDS011;6396;58.490;15.528;2022-07-12T08:13:22;1.80;;;1.40;;
12663;SDS011;6396;58.490;15.528;2022-07-12T08:15:49;2.13;;;1.40;;
12663;SDS011;6396;58.490;15.528;2022-07-12T08:18:16;1.60;;;1.40;;
12663;SDS011;6396;58.490;15.528;2022-07-12T08:20:43;2.33;;;1.17;;
12663;SDS011;6396;58.490;15.528;2022-07-12T08:23:10;1.52;;;1.42;;
12663;SDS011;6396;58.490;15.528;2022-07-12T08:25:37;1.40;;;1.30;;
12663;SDS011;6396;58.490;15.528;2022-07-12T08:28:06;1.20;;;1.10;;
12663;SDS011;6396;58.490;15.528;2022-07-12T08:30:33;2.20;;;1.20;;
12663;SDS011;6396;58.490;15.528;2022-07-12T08:32:59;1.35;;;1.25;;
12663;SDS011;6396;58.490;15.528;2022-07-12T08:35:26;1.90;;;1.50;;
12663;SDS011;6396;58.490;15.528;2022-07-12T08:37:53;1.90;;;1.30;;
12663;SDS011;6396;58.490;15.528;2022-07-12T08:40:20;0.95;;;0.95;;
12663;SDS011;6396;58.490;15.528;2022-07-12T08:42:47;1.30;;;1.20;;
12663;SDS011;6396;58.490;15.528;2022-07-12T08:45:15;1.20;;;1.10;;
12663;SDS011;6396;58.490;15.528;2022-07-12T08:47:42;1.48;;;1.17;;
12663;SDS011;6396;58.490;15.528;2022-07-12T08:50:10;1.30;;;1.15;;
12663;SDS011;6396;58.490;15.528;2022-07-12T08:52:38;1.70;;;1.27;;
12663;SDS011;6396;58.490;15.528;2022-07-12T08:55:15;1.30;;;1.08;;
12663;SDS011;6396;58.490;15.528;2022-07-12T08:57:47;1.30;;;1.20;;
12663;SDS011;6396;58.490;15.528;2022-07-12T09:00:17;1.50;;;1.10;;
12663;SDS011;6396;58.490;15.528;2022-07-12T09:02:45;1.23;;;1.13;;
12663;SDS011;6396;58.490;15.528;2022-07-12T09:05:14;1.35;;;1.10;;
12663;SDS011;6396;58.490;15.528;2022-07-12T09:07:41;3.72;;;1.30;;
12663;SDS011;6396;58.490;15.528;2022-07-12T09:10:09;1.23;;;1.13;;
12663;SDS011;6396;58.490;15.528;2022-07-12T09:12:36;1.38;;;1.10;;
12663;SDS011;6396;58.490;15.528;2022-07-12T09:15:10;1.20;;;1.10;;
12663;SDS011;6396;58.490;15.528;2022-07-12T09:17:40;1.52;;;1.42;;
12663;SDS011;6396;58.490;15.528;2022-07-12T09:20:09;1.15;;;1.10;;
12663;SDS011;6396;58.490;15.528;2022-07-12T09:22:37;1.65;;;1.30;;
12663;SDS011;6396;58.490;15.528;2022-07-12T09:25:13;1.50;;;1.30;;
12663;SDS011;6396;58.490;15.528;2022-07-12T09:27:46;3.45;;;1.00;;
12663;SDS011;6396;58.490;15.528;2022-07-12T09:30:15;1.30;;;1.20;;
12663;SDS011;6396;58.490;15.528;2022-07-12T09:32:56;1.30;;;1.20;;
12663;SDS011;6396;58.490;15.528;2022-07-12T09:35:41;1.23;;;1.13;;
12663;SDS011;6396;58.490;15.528;2022-07-12T09:38:26;1.08;;;0.98;;
12663;SDS011;6396;58.490;15.528;2022-07-12T09:40:54;1.83;;;1.20;;
12663;SDS011;6396;58.490;15.528;2022-07-12T09:43:22;1.88;;;1.20;;
12663;SDS011;6396;58.490;15.528;2022-07-12T09:45:50;1.55;;;1.38;;
12663;SDS011;6396;58.490;15.528;2022-07-12T09:48:19;1.42;;;1.17;;
12663;SDS011;6396;58.490;15.528;2022-07-12T09:50:47;3.08;;;1.10;;
12663;SDS011;6396;58.490;15.528;2022-07-12T09:53:18;1.10;;;1.00;;
12663;SDS011;6396;58.490;15.528;2022-07-12T09:55:51;1.20;;;1.10;;
12663;SDS011;6396;58.490;15.528;2022-07-12T09:58:22;1.27;;;0.95;;
12663;SDS011;6396;58.490;15.528;2022-07-12T10:00:54;1.20;;;1.10;;
12663;SDS011;6396;58.490;15.528;2022-07-12T10:03:26;1.50;;;1.00;;
12663;SDS011;6396;58.490;15.528;2022-07-12T10:05:56;1.13;;;1.05;;
12663;SDS011;6396;58.490;15.528;2022-07-12T10:08:27;1.13;;;1.10;;
12663;SDS011;6396;58.490;15.528;2022-07-12T10:10:55;1.30;;;1.20;;
12663;SDS011;6396;58.490;15.528;2022-07-12T10:13:22;1.50;;;1.05;;
12663;SDS011;6396;58.490;15.528;2022-07-12T10:15:49;1.90;;;1.15;;
12663;SDS011;6396;58.490;15.528;2022-07-12T10:18:23;0.90;;;0.90;;
12663;SDS011;6396;58.490;15.528;2022-07-12T10:20:51;1.23;;;0.90;;
12663;SDS011;6396;58.490;15.528;2022-07-12T10:23:34;1.15;;;0.82;;
12663;SDS011;6396;58.490;15.528;2022-07-12T10:29:04;1.13;;;0.90;;
12663;SDS011;6396;58.490;15.528;2022-07-12T10:31:33;1.17;;;1.08;;
12663;SDS011;6396;58.490;15.528;2022-07-12T10:34:11;1.13;;;1.08;;
12663;SDS011;6396;58.490;15.528;2022-07-12T10:39:37;0.80;;;0.80;;
12663;SDS011;6396;58.490;15.528;2022-07-12T10:42:15;0.80;;;0.80;;
12663;SDS011;6396;58.490;15.528;2022-07-12T10:44:44;1.02;;;0.90;;
12663;SDS011;6396;58.490;15.528;2022-07-12T10:47:13;1.38;;;0.85;;
12663;SDS011;6396;58.490;15.528;2022-07-12T10:49:45;1.45;;;0.95;;
12663;SDS011;6396;58.490;15.528;2022-07-12T10:52:25;1.35;;;0.80;;
12663;SDS011;6396;58.490;15.528;2022-07-12T10:57:46;1.45;;;1.05;;
12663;SDS011;6396;58.490;15.528;2022-07-12T11:00:17;0.88;;;0.88;;
12663;SDS011;6396;58.490;15.528;2022-07-12T11:02:44;0.93;;;0.77;;
12663;SDS011;6396;58.490;15.528;2022-07-12T11:05:11;0.90;;;0.90;;
12663;SDS011;6396;58.490;15.528;2022-07-12T11:07:39;0.70;;;0.70;;
12663;SDS011;6396;58.490;15.528;2022-07-12T11:10:07;0.90;;;0.90;;
12663;SDS011;6396;58.490;15.528;2022-07-12T11:12:38;2.03;;;1.02;;
12663;SDS011;6396;58.490;15.528;2022-07-12T11:15:05;0.88;;;0.88;;
12663;SDS011;6396;58.490;15.528;2022-07-12T11:17:33;1.00;;;0.90;;
12663;SDS011;6396;58.490;15.528;2022-07-12T11:20:05;0.80;;;0.80;;
12663;SDS011;6396;58.490;15.528;2022-07-12T11:22:35;0.90;;;0.90;;
12663;SDS011;6396;58.490;15.528;2022-07-12T11:25:18;0.80;;;0.80;;
12663;SDS011;6396;58.490;15.528;2022-07-12T11:27:45;0.85;;;0.80;;
12663;SDS011;6396;58.490;15.528;2022-07-12T11:30:15;1.38;;;0.90;;
12663;SDS011;6396;58.490;15.528;2022-07-12T11:32:45;2.05;;;1.08;;
12663;SDS011;6396;58.490;15.528;2022-07-12T11:35:17;0.90;;;0.90;;
12663;SDS011;6396;58.490;15.528;2022-07-12T11:37:49;0.70;;;0.70;;
12663;SDS011;6396;58.490;15.528;2022-07-12T11:40:22;1.92;;;1.00;;
12663;SDS011;6396;58.490;15.528;2022-07-12T11:42:53;1.05;;;0.82;;
12663;SDS011;6396;58.490;15.528;2022-07-12T11:45:20;1.08;;;0.90;;
12663;SDS011;6396;58.490;15.528;2022-07-12T11:47:47;0.95;;;0.90;;
12663;SDS011;6396;58.490;15.528;2022-07-12T11:50:16;1.98;;;1.00;;
12663;SDS011;6396;58.490;15.528;2022-07-12T11:52:43;0.90;;;0.90;;
12663;SDS011;6396;58.490;15.528;2022-07-12T11:55:10;0.80;;;0.80;;
12663;SDS011;6396;58.490;15.528;2022-07-12T11:57:39;2.38;;;0.90;;
12663;SDS011;6396;58.490;15.528;2022-07-12T12:00:12;1.15;;;0.98;;
12663;SDS011;6396;58.490;15.528;2022-07-12T12:02:43;1.38;;;1.00;;
12663;SDS011;6396;58.490;15.528;2022-07-12T12:05:10;1.17;;;1.10;;
12663;SDS011;6396;58.490;15.528;2022-07-12T12:07:37;1.83;;;0.90;;
12663;SDS011;6396;58.490;15.528;2022-07-12T12:10:04;0.80;;;0.80;;
12663;SDS011;6396;58.490;15.528;2022-07-12T12:12:36;2.20;;;1.02;;
12663;SDS011;6396;58.490;15.528;2022-07-12T12:15:07;1.05;;;1.00;;
12663;SDS011;6396;58.490;15.528;2022-07-12T12:17:36;0.90;;;0.90;;
12663;SDS011;6396;58.490;15.528;2022-07-12T12:20:13;2.05;;;0.90;;
12663;SDS011;6396;58.490;15.528;2022-07-12T12:22:42;2.05;;;0.90;;
12663;SDS011;6396;58.490;15.528;2022-07-12T12:25:10;1.67;;;0.90;;
12663;SDS011;6396;58.490;15.528;2022-07-12T12:27:42;1.88;;;1.00;;
12663;SDS011;6396;58.490;15.528;2022-07-12T12:30:10;0.90;;;0.90;;
12663;SDS011;6396;58.490;15.528;2022-07-12T12:32:44;0.90;;;0.90;;
12663;SDS011;6396;58.490;15.528;2022-07-12T12:35:16;0.75;;;0.75;;
12663;SDS011;6396;58.490;15.528;2022-07-12T12:37:53;0.95;;;0.95;;
12663;SDS011;6396;58.490;15.528;2022-07-12T12:40:23;2.78;;;1.10;;
12663;SDS011;6396;58.490;15.528;2022-07-12T12:43:04;0.82;;;0.82;;
12663;SDS011;6396;58.490;15.528;2022-07-12T12:45:32;1.20;;;1.10;;
12663;SDS011;6396;58.490;15.528;2022-07-12T12:48:00;1.00;;;1.00;;
12663;SDS011;6396;58.490;15.528;2022-07-12T12:50:38;1.50;;;1.00;;
12663;SDS011;6396;58.490;15.528;2022-07-12T12:53:06;2.13;;;0.90;;
12663;SDS011;6396;58.490;15.528;2022-07-12T12:55:37;0.90;;;0.80;;
12663;SDS011;6396;58.490;15.528;2022-07-12T12:58:06;0.85;;;0.82;;
12663;SDS011;6396;58.490;15.528;2022-07-12T13:00:33;1.13;;;0.97;;
12663;SDS011;6396;58.490;15.528;2022-07-12T13:03:02;0.90;;;0.90;;
12663;SDS011;6396;58.490;15.528;2022-07-12T13:05:29;1.95;;;0.93;;
12663;SDS011;6396;58.490;15.528;2022-07-12T13:07:56;0.95;;;0.95;;
12663;SDS011;6396;58.490;15.528;2022-07-12T13:10:23;1.00;;;1.00;;
12663;SDS011;6396;58.490;15.528;2022-07-12T13:12:51;1.00;;;1.00;;
12663;SDS011;6396;58.490;15.528;2022-07-12T13:15:19;1.00;;;1.00;;
12663;SDS011;6396;58.490;15.528;2022-07-12T13:17:47;1.20;;;1.10;;
12663;SDS011;6396;58.490;15.528;2022-07-12T13:20:14;1.03;;;1.00;;
12663;SDS011;6396;58.490;15.528;2022-07-12T13:22:41;0.87;;;0.87;;
12663;SDS011;6396;58.490;15.528;2022-07-12T13:25:09;1.00;;;0.90;;
12663;SDS011;6396;58.490;15.528;2022-07-12T13:27:37;1.50;;;1.20;;
12663;SDS011;6396;58.490;15.528;2022-07-12T13:30:05;1.57;;;0.90;;
12663;SDS011;6396;58.490;15.528;2022-07-12T13:32:34;0.90;;;0.90;;
12663;SDS011;6396;58.490;15.528;2022-07-12T13:35:01;2.37;;;1.10;;
12663;SDS011;6396;58.490;15.528;2022-07-12T13:37:28;1.53;;;1.10;;
12663;SDS011;6396;58.490;15.528;2022-07-12T13:39:55;0.90;;;0.90;;
12663;SDS011;6396;58.490;15.528;2022-07-12T13:42:42;0.90;;;0.90;;
12663;SDS011;6396;58.490;15.528;2022-07-12T13:45:11;1.00;;;1.00;;
12663;SDS011;6396;58.490;15.528;2022-07-12T13:47:41;0.87;;;0.87;;
12663;SDS011;6396;58.490;15.528;2022-07-12T13:50:09;1.03;;;0.93;;
12663;SDS011;6396;58.490;15.528;2022-07-12T13:52:38;0.80;;;0.80;;
12663;SDS011;6396;58.490;15.528;2022-07-12T13:55:06;1.23;;;0.80;;
12663;SDS011;6396;58.490;15.528;2022-07-12T13:57:34;0.97;;;0.90;;
12663;SDS011;6396;58.490;15.528;2022-07-12T14:00:03;1.20;;;1.03;;
12663;SDS011;6396;58.490;15.528;2022-07-12T14:02:34;1.00;;;0.90;;
12663;SDS011;6396;58.490;15.528;2022-07-12T14:05:02;1.13;;;1.00;;
12663;SDS011;6396;58.490;15.528;2022-07-12T14:07:30;1.30;;;1.20;;
12663;SDS011;6396;58.490;15.528;2022-07-12T14:09:57;1.30;;;1.10;;
12663;SDS011;6396;58.490;15.528;2022-07-12T14:12:24;1.37;;;1.00;;
12663;SDS011;6396;58.490;15.528;2022-07-12T14:14:51;1.87;;;1.00;;
12663;SDS011;6396;58.490;15.528;2022-07-12T14:17:35;1.00;;;1.00;;
12663;SDS011;6396;58.490;15.528;2022-07-12T14:20:04;0.90;;;0.90;;
12663;SDS011;6396;58.490;15.528;2022-07-12T14:22:32;1.13;;;1.03;;
12663;SDS011;6396;58.490;15.528;2022-07-12T14:25:00;0.90;;;0.90;;
12663;SDS011;6396;58.490;15.528;2022-07-12T14:27:27;1.50;;;1.00;;
12663;SDS011;6396;58.490;15.528;2022-07-12T14:29:54;1.00;;;0.90;;
12663;SDS011;6396;58.490;15.528;2022-07-12T14:32:21;0.90;;;0.90;;
12663;SDS011;6396;58.490;15.528;2022-07-12T14:34:48;2.33;;;1.07;;
12663;SDS011;6396;58.490;15.528;2022-07-12T14:37:16;0.80;;;0.80;;
12663;SDS011;6396;58.490;15.528;2022-07-12T14:39:43;1.20;;;1.07;;
12663;SDS011;6396;58.490;15.528;2022-07-12T14:42:10;1.30;;;1.20;;
12663;SDS011;6396;58.490;15.528;2022-07-12T14:44:37;0.90;;;0.90;;
12663;SDS011;6396;58.490;15.528;2022-07-12T14:47:04;1.17;;;1.00;;
12663;SDS011;6396;58.490;15.528;2022-07-12T14:49:31;0.80;;;0.80;;
12663;SDS011;6396;58.490;15.528;2022-07-12T14:51:57;1.10;;;1.00;;
12663;SDS011;6396;58.490;15.528;2022-07-12T14:54:26;1.00;;;1.00;;
12663;SDS011;6396;58.490;15.528;2022-07-12T14:56:53;1.97;;;1.10;;
12663;SDS011;6396;58.490;15.528;2022-07-12T14:59:19;2.87;;;1.00;;
12663;SDS011;6396;58.490;15.528;2022-07-12T15:01:47;1.10;;;1.00;;
12663;SDS011;6396;58.490;15.528;2022-07-12T15:04:14;1.20;;;0.90;;